This is the latest recevied weather packets stored in our database for station/object DL1BWU. If no packets are shown the sender has not sent any weather packets the latest 10 day(s).
| Time | Temp. | Humidity | Pressure | Rain* | Wind** | Luminosity | Snow |
|---|---|---|---|---|---|---|---|
| 1777914311 | 20.56° C | 54% | 1011.4 hPa | 0 mm | - | - | - |
| 1777910711 | 21.11° C | 52% | 1011.4 hPa | 0 mm | - | - | - |
| 1777908311 | 22.22° C | 49% | 1011.4 hPa | 0 mm | - | - | - |
| 1777906511 | 22.22° C | 49% | 1011.4 hPa | 0 mm | - | - | - |
| 1777904711 | 22.78° C | 50% | 1011.7 hPa | 0 mm | - | - | - |
| 1777901711 | 21.67° C | 52% | 1012.1 hPa | 0 mm | - | - | - |
| 1777901111 | 21.67° C | 52% | 1012.1 hPa | 0 mm | - | - | - |
| 1777900511 | 21.67° C | 52% | 1012.1 hPa | 0 mm | - | - | - |
| 1777898111 | 22.22° C | 52% | 1012.1 hPa | 0 mm | - | - | - |
| 1777897511 | 22.78° C | 51% | 1012.2 hPa | 0 mm | - | - | - |
| 1777896912 | 22.78° C | 52% | 1012.2 hPa | 0 mm | - | - | - |
| 1777896311 | 22.22° C | 52% | 1012.1 hPa | 0 mm | - | - | - |
| 1777895711 | 22.22° C | 53% | 1012.2 hPa | 0 mm | - | - | - |
| 1777893911 | 20.56° C | 56% | 1012.4 hPa | 0 mm | - | - | - |
| 1777893311 | 20.56° C | 55% | 1012.4 hPa | 0 mm | - | - | - |
| 1777892711 | 21.11° C | 55% | 1012.4 hPa | 0 mm | - | - | - |
| 1777892111 | 21.11° C | 54% | 1012.3 hPa | 0 mm | - | - | - |
| 1777889711 | 20.56° C | 55% | 1012.7 hPa | 0 mm | - | - | - |
| 1777889111 | 21.11° C | 54% | 1012.7 hPa | 0 mm | - | - | - |
| 1777888511 | 21.11° C | 54% | 1012.6 hPa | 0 mm | - | - | - |
| 1777887311 | 21.11° C | 55% | 1012.6 hPa | 0 mm | - | - | - |
| 1777886711 | 20.56° C | 55% | 1012.7 hPa | 0 mm | - | - | - |
| 1777886111 | 21.11° C | 54% | 1012.7 hPa | 0 mm | - | - | - |
| 1777885511 | 21.11° C | 55% | 1012.7 hPa | 0 mm | - | - | - |
| 1777884911 | 20.56° C | 55% | 1012.7 hPa | 0 mm | - | - | - |
* Rain latest hour (hover to see other rain measurements)
** Current wind speed in m/s (hover to see current wind gust speed)